Time;durP1;ratioP1;P1;durP2;ratioP2;P2;SDS_P1;SDS_P2;PMS_P1;PMS_P2;Temp;Humidity;BMP_temperature;BMP_pressure;BME280_temperature;BME280_humidity;BME280_pressure;Samples;Min_cycle;Max_cycle;Signal;HPM_P1;HPM_P2
2022/05/27 00:02:05;;;;;;;1.53;1.07;;;;;;;18.49;55.69;101000.66;5106328;28;20398;-73
2022/05/27 00:04:30;;;;;;;2.80;1.30;;;;;;;18.44;55.82;100998.75;5063155;28;20402;-73
2022/05/27 00:06:55;;;;;;;1.10;1.00;;;;;;;18.42;55.81;100980.94;5084777;28;20848;-73
2022/05/27 00:09:23;;;;;;;1.40;0.77;;;;;;;18.39;55.78;100987.00;5104812;28;20413;-73
2022/05/27 00:11:48;;;;;;;2.05;1.23;;;;;;;18.37;55.94;100986.47;5077211;28;20908;-73
2022/05/27 00:14:14;;;;;;;2.63;0.77;;;;;;;18.37;55.86;100983.72;5080265;28;20418;-73
2022/05/27 00:16:39;;;;;;;2.17;1.03;;;;;;;18.34;55.94;100978.81;5086062;28;20448;-73
2022/05/27 00:19:05;;;;;;;2.03;1.00;;;;;;;18.32;56.10;100976.34;5089451;28;20427;-73
2022/05/27 00:21:30;;;;;;;1.80;0.90;;;;;;;18.34;55.98;100976.06;5091720;28;20417;-73
2022/05/27 00:23:55;;;;;;;1.33;0.90;;;;;;;18.30;56.04;100975.00;5078420;28;20397;-73
2022/05/27 00:26:21;;;;;;;2.13;1.00;;;;;;;18.24;56.21;100985.19;5086796;28;20396;-73
2022/05/27 00:28:46;;;;;;;1.97;1.20;;;;;;;18.18;56.21;100977.25;5074594;28;20390;-73
2022/05/27 00:31:12;;;;;;;2.10;0.80;;;;;;;18.13;56.29;100972.63;5079026;28;20914;-73
2022/05/27 00:33:38;;;;;;;3.35;1.00;;;;;;;18.10;56.47;100974.00;5078897;28;20426;-73
2022/05/27 00:36:10;;;;;;;2.78;0.90;;;;;;;18.09;56.58;100983.31;5084753;28;20453;-73
2022/05/27 00:38:37;;;;;;;1.83;1.17;;;;;;;18.05;56.52;100981.41;5086175;28;20391;-73
2022/05/27 00:41:03;;;;;;;1.70;0.80;;;;;;;18.02;56.67;100973.75;5065521;28;21009;-73
2022/05/27 00:43:29;;;;;;;1.97;0.80;;;;;;;18.02;56.87;100960.03;5076655;28;20406;-73
2022/05/27 00:46:01;;;;;;;1.67;0.90;;;;;;;17.98;57.03;100969.97;5108135;28;20896;-73
2022/05/27 00:48:27;;;;;;;1.70;1.00;;;;;;;17.90;57.18;100970.53;5078963;28;20406;-73
2022/05/27 00:50:54;;;;;;;2.78;1.05;;;;;;;17.90;57.09;100959.56;5074045;28;20444;-73
2022/05/27 00:53:35;;;;;;;1.80;1.02;;;;;;;17.93;57.12;100959.81;5089674;28;20400;-73
2022/05/27 00:56:02;;;;;;;4.05;1.02;;;;;;;17.94;57.11;100964.22;5083544;28;20374;-73
2022/05/27 00:58:32;;;;;;;1.67;1.10;;;;;;;17.92;57.20;100962.84;5080175;28;20442;-73
2022/05/27 01:00:57;;;;;;;1.80;1.02;;;;;;;17.95;57.02;100965.00;5085651;28;20901;-73
2022/05/27 01:03:26;;;;;;;2.47;1.20;;;;;;;17.88;57.30;100964.53;5079016;28;20414;-73
2022/05/27 01:05:51;;;;;;;2.10;1.05;;;;;;;17.83;57.39;100964.53;5084017;28;20904;-74
2022/05/27 01:08:19;;;;;;;1.63;0.97;;;;;;;17.81;57.50;100959.34;5057330;28;20410;-73
2022/05/27 01:10:56;;;;;;;2.13;1.40;;;;;;;17.79;57.57;100957.94;5087395;28;20447;-73
2022/05/27 01:13:53;;;;;;;2.42;1.20;;;;;;;17.83;57.06;100961.78;5087664;28;20384;-73
2022/05/27 01:16:43;;;;;;;2.70;1.17;;;;;;;17.89;57.44;100960.66;5074318;28;20449;-73
2022/05/27 01:23:03;;;;;;;1.27;0.95;;;;;;;17.94;57.15;100953.25;5029486;28;20468;-73
2022/05/27 01:25:40;;;;;;;2.10;1.30;;;;;;;17.99;56.92;100949.63;5084614;28;20383;-73
2022/05/27 01:28:36;;;;;;;1.70;1.15;;;;;;;18.02;57.14;100947.16;5098792;28;20410;-73
2022/05/27 01:31:09;;;;;;;1.63;1.55;;;;;;;18.03;57.03;100956.22;5091924;28;20423;-73
2022/05/27 01:33:41;;;;;;;2.17;1.55;;;;;;;18.05;56.86;100949.34;5077649;28;20862;-73
2022/05/27 01:36:18;;;;;;;4.40;1.00;;;;;;;17.96;57.34;100951.03;5073647;28;20404;-73
2022/05/27 01:39:05;;;;;;;1.20;1.10;;;;;;;17.92;57.39;100944.47;5078174;28;20478;-73
2022/05/27 01:41:46;;;;;;;1.23;1.10;;;;;;;17.88;57.36;100951.59;5097345;28;20805;-73
2022/05/27 01:44:20;;;;;;;4.95;1.40;;;;;;;17.85;57.61;100946.69;5072897;28;20894;-73
2022/05/27 01:46:47;;;;;;;3.47;1.30;;;;;;;17.83;57.74;100948.91;5099168;28;20388;-73
2022/05/27 01:49:36;;;;;;;1.95;1.40;;;;;;;17.73;57.91;100948.94;5078609;28;20487;-73
2022/05/27 01:52:12;;;;;;;1.20;1.10;;;;;;;17.65;58.09;100946.75;5072934;28;20981;-73
2022/05/27 01:55:08;;;;;;;1.00;1.00;;;;;;;17.58;58.40;100941.59;5082201;28;20500;-73
2022/05/27 01:57:41;;;;;;;1.38;1.27;;;;;;;17.57;58.43;100933.66;5079300;28;20445;-73
2022/05/27 02:00:12;;;;;;;0.88;0.88;;;;;;;17.59;58.58;100943.22;5073036;28;20502;-73
2022/05/27 02:02:47;;;;;;;2.25;1.20;;;;;;;17.54;58.63;100936.94;5079320;28;20486;-73
2022/05/27 02:05:21;;;;;;;1.70;1.20;;;;;;;17.56;58.77;100932.84;5083864;28;20386;-73
2022/05/27 02:07:52;;;;;;;1.27;1.10;;;;;;;17.52;58.84;100931.72;5072319;28;20902;-73
2022/05/27 02:10:27;;;;;;;2.03;1.25;;;;;;;17.42;59.17;100931.75;5088818;28;20423;-73
2022/05/27 02:13:05;;;;;;;1.20;1.15;;;;;;;17.43;59.25;100929.81;5088355;28;20868;-73
2022/05/27 02:15:42;;;;;;;1.55;1.25;;;;;;;17.44;59.20;100929.56;5096276;28;20406;-73
2022/05/27 02:18:17;;;;;;;1.58;1.35;;;;;;;17.36;59.51;100935.59;5077666;28;20390;-73
2022/05/27 02:20:49;;;;;;;2.08;1.35;;;;;;;17.22;60.07;100937.31;5082284;28;20683;-73
2022/05/27 02:23:38;;;;;;;2.05;1.20;;;;;;;17.22;60.08;100931.81;5054279;28;20400;-73
2022/05/27 02:26:14;;;;;;;1.02;0.93;;;;;;;17.20;60.01;100927.69;5075770;28;20462;-73
2022/05/27 02:28:45;;;;;;;1.45;1.20;;;;;;;17.27;60.02;100928.22;5079317;28;20488;-73
2022/05/27 02:31:19;;;;;;;1.80;1.60;;;;;;;17.29;59.94;100926.06;5086959;28;20460;-73
2022/05/27 02:36:38;;;;;;;3.60;1.20;;;;;;;17.30;59.80;100931.25;5086172;28;20493;-73
2022/05/27 02:39:05;;;;;;;2.60;1.17;;;;;;;17.29;59.81;100926.84;5075517;28;20905;-73
2022/05/27 02:41:40;;;;;;;3.55;1.48;;;;;;;17.31;59.88;100935.63;5082220;28;20415;-73
2022/05/27 02:44:45;;;;;;;3.50;1.42;;;;;;;17.27;60.04;100931.78;5082882;28;20505;-73
2022/05/27 02:47:27;;;;;;;2.20;1.30;;;;;;;17.24;60.25;100931.53;5073351;28;20407;-73
2022/05/27 02:50:02;;;;;;;1.37;1.20;;;;;;;17.18;60.47;100935.38;5086351;28;20869;-73
2022/05/27 02:53:07;;;;;;;1.38;1.27;;;;;;;17.23;60.40;100935.34;5078408;28;20431;-73
2022/05/27 02:55:54;;;;;;;4.50;1.63;;;;;;;17.19;60.50;100932.34;5081620;28;20455;-73
2022/05/27 02:58:20;;;;;;;1.40;1.30;;;;;;;17.17;60.58;100931.81;5079308;28;20422;-73
2022/05/27 03:00:46;;;;;;;3.17;1.50;;;;;;;17.23;60.41;100927.97;5077668;28;20410;-73
2022/05/27 03:03:11;;;;;;;2.23;1.50;;;;;;;17.25;60.53;100927.69;5073900;28;20386;-73
2022/05/27 03:05:55;;;;;;;2.50;1.20;;;;;;;17.27;60.45;100923.56;5054219;28;20523;-73
2022/05/27 03:08:41;;;;;;;2.70;1.35;;;;;;;17.29;60.31;100924.09;5077647;28;20407;-73
2022/05/27 03:11:23;;;;;;;2.63;2.03;;;;;;;17.33;60.38;100929.84;5075271;28;20432;-73
2022/05/27 03:13:59;;;;;;;1.67;1.52;;;;;;;17.26;60.58;100921.09;5087054;28;20394;-73
2022/05/27 03:16:27;;;;;;;1.85;1.75;;;;;;;17.24;60.66;100924.13;5086591;28;20398;-73
2022/05/27 03:19:01;;;;;;;2.90;1.73;;;;;;;17.28;60.62;100929.88;5071422;28;20400;-73
2022/05/27 03:21:35;;;;;;;1.77;1.65;;;;;;;17.20;61.04;100933.16;5080187;28;20512;-73
2022/05/27 03:24:15;;;;;;;2.60;1.70;;;;;;;17.18;61.25;100922.50;5077251;28;20850;-73
2022/05/27 03:27:03;;;;;;;1.85;1.70;;;;;;;17.19;61.26;100926.88;5086940;28;20399;-73
2022/05/27 03:29:36;;;;;;;2.83;2.25;;;;;;;17.16;61.17;100921.16;5081475;28;20401;-73
2022/05/27 03:32:22;;;;;;;2.15;1.80;;;;;;;17.17;61.53;100920.84;5086130;28;20418;-73
2022/05/27 03:34:58;;;;;;;2.63;2.42;;;;;;;17.24;61.28;100928.78;5043612;28;20436;-73
2022/05/27 03:37:35;;;;;;;2.20;2.00;;;;;;;17.20;61.93;100925.78;5076229;28;20399;-73
2022/05/27 03:40:12;;;;;;;2.63;2.00;;;;;;;17.29;61.57;100926.06;5070549;28;20447;-73
2022/05/27 03:42:40;;;;;;;2.50;2.35;;;;;;;17.34;61.29;100932.31;5075815;28;20390;-73
2022/05/27 03:45:11;;;;;;;2.70;2.50;;;;;;;17.25;61.34;100924.97;5081740;28;20405;-73
2022/05/27 03:47:38;;;;;;;4.10;2.67;;;;;;;17.24;61.58;100926.88;5062731;28;20402;-73
2022/05/27 03:50:05;;;;;;;3.33;2.37;;;;;;;17.27;61.52;100934.53;5055071;28;20392;-73
2022/05/27 03:52:39;;;;;;;4.93;3.00;;;;;;;17.20;61.83;100934.00;5058177;28;20414;-73
2022/05/27 03:55:05;;;;;;;2.40;2.20;;;;;;;17.27;61.64;100930.97;5076368;28;20402;-73
2022/05/27 03:57:31;;;;;;;2.50;2.30;;;;;;;17.31;61.40;100934.81;5077054;28;20403;-73
2022/05/27 03:59:56;;;;;;;3.33;1.93;;;;;;;17.28;61.54;100932.63;5086980;28;20397;-73
2022/05/27 04:02:21;;;;;;;3.13;2.60;;;;;;;17.28;61.51;100941.66;5083868;28;20897;-73
2022/05/27 04:04:46;;;;;;;2.77;2.30;;;;;;;17.26;61.62;100946.56;5059563;28;20611;-72
2022/05/27 04:07:12;;;;;;;2.45;2.28;;;;;;;17.29;61.59;100943.28;5071094;28;20395;-73
2022/05/27 04:09:37;;;;;;;3.20;2.10;;;;;;;17.31;61.48;100948.50;5087489;28;20398;-73
2022/05/27 04:12:04;;;;;;;3.57;2.30;;;;;;;17.32;61.60;100939.97;5074986;28;20418;-73
2022/05/27 04:14:31;;;;;;;2.67;2.40;;;;;;;17.29;61.55;100937.81;5080545;28;20823;-73
2022/05/27 04:17:27;;;;;;;3.38;1.92;;;;;;;17.29;61.60;100940.53;5075115;28;20439;-73
2022/05/27 04:19:42;;;;;;;2.83;2.20;;;;;;;17.23;61.83;100949.03;5086383;28;20402;-73
2022/05/27 04:22:08;;;;;;;4.43;3.10;;;;;;;17.27;61.85;100940.00;5055045;28;20396;-73
2022/05/27 04:24:33;;;;;;;2.17;1.97;;;;;;;17.34;61.50;100945.19;5080744;28;20405;-73
2022/05/27 04:26:59;;;;;;;6.60;2.60;;;;;;;17.38;61.45;100946.28;5080284;28;20415;-73
2022/05/27 04:29:24;;;;;;;3.58;2.30;;;;;;;17.41;61.50;100948.47;5087544;28;20461;-73
2022/05/27 04:31:49;;;;;;;2.87;2.33;;;;;;;17.37;61.65;100959.16;5052224;28;20425;-73
2022/05/27 04:34:15;;;;;;;2.47;1.87;;;;;;;17.41;61.44;100953.94;5058586;28;20406;-73
2022/05/27 04:36:40;;;;;;;2.33;2.13;;;;;;;17.39;61.62;100951.47;5055841;28;20894;-73
2022/05/27 04:39:06;;;;;;;3.53;2.25;;;;;;;17.27;61.73;100966.56;5057605;28;20411;-73
2022/05/27 04:41:31;;;;;;;4.60;2.37;;;;;;;17.21;62.09;100964.94;5071100;28;20837;-73
2022/05/27 04:43:56;;;;;;;3.03;2.50;;;;;;;17.17;62.24;100958.38;5056815;28;20458;-73
2022/05/27 04:46:21;;;;;;;3.42;2.10;;;;;;;17.30;62.02;100955.06;5062750;28;20414;-73
2022/05/27 04:48:49;;;;;;;3.77;1.80;;;;;;;17.28;61.83;100963.56;5069220;28;20411;-73
2022/05/27 04:51:14;;;;;;;2.08;1.95;;;;;;;17.21;62.20;100965.78;5057760;28;20744;-73
2022/05/27 04:53:40;;;;;;;5.50;1.80;;;;;;;17.19;62.12;100967.94;5067436;28;20394;-73
2022/05/27 04:56:08;;;;;;;3.30;1.87;;;;;;;17.24;61.92;100976.19;5060097;28;20417;-73
2022/05/27 04:58:34;;;;;;;2.13;1.70;;;;;;;17.24;62.10;100973.44;5062280;28;20413;-73
2022/05/27 05:00:59;;;;;;;4.70;1.83;;;;;;;17.26;61.98;100976.72;5068256;28;20779;-73
2022/05/27 05:03:25;;;;;;;2.33;1.80;;;;;;;17.21;62.19;100974.00;5059763;28;20383;-73
2022/05/27 05:05:50;;;;;;;1.70;1.60;;;;;;;17.29;61.88;100978.09;5064157;28;20402;-73
2022/05/27 05:08:33;;;;;;;3.77;2.20;;;;;;;17.28;61.76;100985.50;5058368;28;20737;-73
2022/05/27 05:11:01;;;;;;;2.20;1.80;;;;;;;17.20;61.99;100982.47;5060780;28;20420;-73
2022/05/27 05:13:27;;;;;;;3.15;1.70;;;;;;;17.16;61.77;100978.66;5054526;28;20487;-73
2022/05/27 05:15:53;;;;;;;2.55;2.05;;;;;;;17.10;62.19;100981.41;5064144;28;20955;-73
2022/05/27 05:18:18;;;;;;;2.95;1.70;;;;;;;17.14;62.06;100984.41;5062478;28;20404;-73
2022/05/27 05:20:44;;;;;;;2.90;1.70;;;;;;;17.18;61.93;100977.28;5063499;28;20403;-73
2022/05/27 05:23:09;;;;;;;2.60;2.20;;;;;;;17.25;61.79;100983.31;5063797;28;20388;-73
2022/05/27 05:25:34;;;;;;;2.20;1.70;;;;;;;17.19;62.03;100981.66;5067381;28;20888;-73
2022/05/27 05:28:01;;;;;;;3.50;1.77;;;;;;;17.20;61.85;100986.03;5067473;28;20395;-73
2022/05/27 05:30:27;;;;;;;3.30;1.75;;;;;;;17.31;61.32;100986.84;5064996;28;20784;-73
2022/05/27 05:32:53;;;;;;;3.57;1.93;;;;;;;17.19;61.67;100978.09;5069959;28;20391;-73
2022/05/27 05:35:19;;;;;;;2.22;1.77;;;;;;;17.23;61.70;100980.00;5081290;28;20398;-73
2022/05/27 05:37:44;;;;;;;1.67;1.57;;;;;;;17.24;61.59;100983.56;5075787;28;20396;-73
2022/05/27 05:40:12;;;;;;;3.80;1.87;;;;;;;17.21;61.56;100978.66;5062273;28;20813;-73
2022/05/27 05:42:39;;;;;;;4.50;1.77;;;;;;;17.29;61.33;100986.31;5077047;28;20435;-73
2022/05/27 05:45:05;;;;;;;3.13;1.45;;;;;;;17.37;61.07;100988.47;5071561;28;20415;-73
2022/05/27 05:47:31;;;;;;;2.42;2.00;;;;;;;17.39;60.90;100989.84;5073902;28;20443;-73
2022/05/27 05:49:56;;;;;;;4.10;1.70;;;;;;;17.32;60.99;100988.50;5075191;28;20829;-73
2022/05/27 05:52:22;;;;;;;2.57;2.00;;;;;;;17.20;61.36;100982.47;5080242;28;20726;-73
2022/05/27 05:54:48;;;;;;;3.23;1.90;;;;;;;17.13;61.69;100985.50;5092627;28;20412;-73
2022/05/27 05:57:13;;;;;;;2.37;1.63;;;;;;;17.17;61.42;100983.03;5066077;28;20405;-73
2022/05/27 05:59:39;;;;;;;2.13;1.67;;;;;;;17.28;61.52;100992.88;5088024;28;20494;-73
2022/05/27 06:02:07;;;;;;;1.88;1.70;;;;;;;17.31;61.12;100987.69;5076978;28;20457;-73
2022/05/27 06:04:32;;;;;;;1.30;1.30;;;;;;;17.30;61.11;100986.03;5060140;28;20467;-73
2022/05/27 06:06:58;;;;;;;3.03;1.60;;;;;;;17.33;61.10;100992.88;5082613;28;20897;-73
2022/05/27 06:09:27;;;;;;;2.97;1.90;;;;;;;17.24;61.34;100989.88;5078811;28;20760;-73
2022/05/27 06:11:53;;;;;;;2.40;1.77;;;;;;;17.15;61.70;100996.19;5089206;28;20513;-73
2022/05/27 06:14:19;;;;;;;2.53;1.60;;;;;;;17.31;61.29;100990.41;5079307;28;20406;-73
2022/05/27 06:16:44;;;;;;;1.50;1.40;;;;;;;17.31;61.28;100984.94;5070299;28;20772;-73
2022/05/27 06:19:10;;;;;;;3.07;1.60;;;;;;;17.25;61.37;100991.53;5082006;28;20411;-73
2022/05/27 06:21:35;;;;;;;2.17;1.70;;;;;;;17.31;61.16;100990.41;5083251;28;20413;-72
2022/05/27 06:24:01;;;;;;;1.73;1.60;;;;;;;17.38;60.98;100990.97;5077720;28;20410;-73
2022/05/27 06:26:26;;;;;;;4.10;1.90;;;;;;;17.40;60.85;100991.50;5071440;28;20404;-72
2022/05/27 06:34:25;;;;;;;1.90;1.70;;;;;;;17.31;60.67;100990.41;5079979;28;20449;-72
2022/05/27 06:37:05;;;;;;;2.57;1.73;;;;;;;17.43;60.27;100985.44;5084829;28;20435;-72
2022/05/27 06:39:33;;;;;;;3.22;2.00;;;;;;;17.45;60.39;100985.97;5075294;28;20507;-73
2022/05/27 06:41:59;;;;;;;4.53;1.83;;;;;;;17.54;59.99;100992.56;5080007;28;20440;-73
2022/05/27 06:44:24;;;;;;;1.85;1.75;;;;;;;17.52;59.97;100994.75;5086243;28;20410;-73
2022/05/27 06:46:51;;;;;;;1.70;1.60;;;;;;;17.54;59.88;100998.03;5074603;28;20416;-73
2022/05/27 06:49:17;;;;;;;1.73;1.60;;;;;;;17.49;60.22;100999.94;5086289;28;20411;-73
2022/05/27 06:51:43;;;;;;;1.75;1.65;;;;;;;17.46;60.27;101001.34;5076912;28;20510;-73
2022/05/27 06:54:10;;;;;;;2.15;1.90;;;;;;;17.44;60.50;100997.25;5064705;28;20997;-73
2022/05/27 06:56:37;;;;;;;2.58;2.10;;;;;;;17.44;60.60;100998.06;5057391;28;20400;-73
2022/05/27 06:59:04;;;;;;;2.20;2.00;;;;;;;17.56;59.99;101001.34;5083211;28;20396;-73
2022/05/27 07:01:30;;;;;;;3.55;2.00;;;;;;;17.56;59.99;101000.53;5072170;28;20451;-72
2022/05/27 07:03:55;;;;;;;3.03;1.87;;;;;;;17.57;60.04;101004.91;5080767;28;20406;-72
2022/05/27 07:06:31;;;;;;;3.53;1.93;;;;;;;17.61;60.13;101009.56;5094363;28;20911;-73
2022/05/27 07:08:56;;;;;;;2.33;1.65;;;;;;;17.59;59.99;101006.25;5087784;28;20461;-72
2022/05/27 07:11:22;;;;;;;2.28;1.77;;;;;;;17.57;60.33;101007.66;5079505;28;20417;-72
2022/05/27 07:13:48;;;;;;;3.55;1.92;;;;;;;17.58;60.31;101001.88;5072765;28;20412;-72
2022/05/27 07:16:14;;;;;;;2.13;1.70;;;;;;;17.55;60.55;101005.19;5070726;28;20392;-73
2022/05/27 07:18:39;;;;;;;3.35;1.73;;;;;;;17.51;60.76;101004.06;5074403;28;20763;-73
2022/05/27 07:21:06;;;;;;;4.60;2.33;;;;;;;17.57;60.78;101002.16;5089402;28;20406;-73
2022/05/27 07:23:32;;;;;;;1.90;1.80;;;;;;;17.56;60.71;101000.53;5081280;28;20378;-73
2022/05/27 07:25:58;;;;;;;2.10;2.00;;;;;;;17.66;60.35;101002.41;5077668;28;20399;-73
2022/05/27 07:28:24;;;;;;;2.42;1.63;;;;;;;17.69;60.37;101001.84;5079589;28;20391;-72
2022/05/27 07:30:51;;;;;;;2.15;1.95;;;;;;;17.69;60.26;100991.72;5083358;28;20761;-73
2022/05/27 07:33:16;;;;;;;7.90;2.10;;;;;;;17.74;60.30;100996.38;5079660;28;20445;-73
2022/05/27 07:35:42;;;;;;;3.30;1.70;;;;;;;17.78;60.37;100990.06;5082297;28;20430;-73
2022/05/27 07:38:08;;;;;;;5.78;1.70;;;;;;;17.88;60.26;101000.97;5079763;28;20893;-73
2022/05/27 07:40:34;;;;;;;3.15;1.90;;;;;;;17.98;59.81;100994.63;5057801;28;20498;-73
2022/05/27 07:42:59;;;;;;;3.90;1.80;;;;;;;18.04;59.68;100996.25;5079984;28;20401;-73
2022/05/27 07:45:27;;;;;;;2.00;1.90;;;;;;;17.94;59.93;100996.28;5088165;28;20409;-73
2022/05/27 07:47:56;;;;;;;3.87;1.77;;;;;;;17.83;60.24;101001.00;5066440;28;20508;-73
2022/05/27 07:50:23;;;;;;;2.10;1.85;;;;;;;17.84;60.27;100997.16;5079716;28;20406;-73
2022/05/27 07:52:49;;;;;;;1.75;1.40;;;;;;;17.88;60.04;100995.47;5065353;28;20392;-73
2022/05/27 07:55:15;;;;;;;1.75;1.60;;;;;;;17.97;59.69;101001.22;5082896;28;20402;-73
2022/05/27 07:57:45;;;;;;;1.80;1.60;;;;;;;18.02;59.46;101002.00;5076044;28;20779;-73
2022/05/27 08:00:18;;;;;;;2.17;2.00;;;;;;;17.99;59.39;101009.97;5074007;28;20922;-73
2022/05/27 08:02:43;;;;;;;2.15;1.65;;;;;;;17.94;59.95;101005.34;5061791;28;20484;-73
2022/05/27 08:05:12;;;;;;;2.63;1.53;;;;;;;18.04;59.78;101009.97;5075748;28;20726;-73
2022/05/27 08:07:38;;;;;;;1.80;1.70;;;;;;;17.98;59.62;101005.59;5059108;28;20425;-73
2022/05/27 08:10:04;;;;;;;2.72;1.80;;;;;;;17.95;59.62;101011.63;5077806;28;20404;-73
2022/05/27 08:12:31;;;;;;;3.50;2.08;;;;;;;18.02;59.54;101003.94;5082924;28;20761;-73
2022/05/27 08:14:56;;;;;;;3.33;1.55;;;;;;;18.11;59.40;101007.75;5086091;28;20485;-73
2022/05/27 08:17:21;;;;;;;1.77;1.67;;;;;;;18.19;59.50;100998.09;5078859;28;20416;-73
2022/05/27 08:19:47;;;;;;;3.17;1.50;;;;;;;18.18;59.51;100997.25;5081023;28;20845;-73
2022/05/27 08:22:12;;;;;;;3.00;1.77;;;;;;;18.15;59.62;100998.66;5081688;28;20399;-73
2022/05/27 08:24:37;;;;;;;1.63;1.52;;;;;;;18.21;59.54;100993.94;5084238;28;20386;-72
2022/05/27 08:27:03;;;;;;;1.80;1.60;;;;;;;18.24;59.28;100998.06;5083091;28;20470;-72
2022/05/27 08:29:28;;;;;;;2.37;1.33;;;;;;;18.18;59.71;100994.53;5088682;28;20888;-73
2022/05/27 08:31:54;;;;;;;1.92;1.50;;;;;;;18.27;59.56;101003.81;5088380;28;21024;-73
2022/05/27 08:39:47;;;;;;;1.80;1.70;;;;;;;18.29;59.79;101003.53;5080038;28;20925;-73
2022/05/27 08:42:32;;;;;;;3.07;1.97;;;;;;;18.25;59.62;101014.25;5093484;28;20393;-73
2022/05/27 08:45:32;;;;;;;2.15;1.95;;;;;;;18.44;59.43;101011.69;5084958;28;20859;-73
2022/05/27 08:48:01;;;;;;;1.90;1.80;;;;;;;18.41;59.19;101007.56;5072590;28;20933;-73
2022/05/27 08:50:58;;;;;;;2.10;1.73;;;;;;;18.43;59.47;101010.03;5080662;28;20410;-73
2022/05/27 08:53:41;;;;;;;1.95;1.85;;;;;;;18.47;59.36;101005.63;5083755;28;20400;-73
2022/05/27 09:01:53;;;;;;;2.88;1.70;;;;;;;18.58;58.32;101015.44;5084649;28;20525;-73
2022/05/27 09:04:43;;;;;;;2.78;1.52;;;;;;;18.52;58.59;101019.34;5073456;28;20437;-73
2022/05/27 09:07:27;;;;;;;2.70;1.80;;;;;;;18.67;58.27;101015.69;5083139;28;20398;-73
2022/05/27 09:09:53;;;;;;;1.67;1.50;;;;;;;18.81;57.85;101016.66;5082000;28;20476;-73
2022/05/27 09:12:18;;;;;;;1.25;1.25;;;;;;;19.03;56.96;101011.56;5090148;28;20406;-73
2022/05/27 09:14:50;;;;;;;1.40;1.30;;;;;;;19.25;56.62;101011.09;5094828;28;20898;-73
2022/05/27 09:17:33;;;;;;;2.88;1.73;;;;;;;19.36;56.27;101001.66;5081772;28;20387;-73
2022/05/27 09:20:07;;;;;;;1.55;1.45;;;;;;;19.53;55.48;100999.28;5073468;28;20393;-73
2022/05/27 09:22:41;;;;;;;1.40;1.30;;;;;;;19.64;55.14;101001.66;5078032;28;20390;-73
2022/05/27 09:25:09;;;;;;;1.27;1.00;;;;;;;19.67;54.64;100995.56;5091853;28;20393;-73
2022/05/27 09:28:02;;;;;;;3.30;1.35;;;;;;;19.67;54.69;100986.50;5075484;28;20903;-73
2022/05/27 09:30:32;;;;;;;1.73;1.37;;;;;;;19.65;53.93;100992.28;5090418;28;20889;-73
2022/05/27 09:33:04;;;;;;;2.30;1.10;;;;;;;19.75;53.91;100990.53;5076186;28;20407;-72
2022/05/27 09:35:32;;;;;;;2.92;1.10;;;;;;;19.86;53.29;100986.53;5070573;28;20393;-72
2022/05/27 09:38:01;;;;;;;1.10;1.10;;;;;;;19.95;52.83;100982.88;5090084;28;20382;-72
2022/05/27 09:40:46;;;;;;;1.30;1.20;;;;;;;20.02;52.54;100982.50;5077054;28;20379;-73
2022/05/27 09:43:33;;;;;;;2.28;1.50;;;;;;;19.93;52.89;100978.75;5100615;28;20477;-73
2022/05/27 09:46:04;;;;;;;1.30;1.20;;;;;;;19.99;53.10;100985.84;5083703;28;20402;-73
2022/05/27 09:48:30;;;;;;;1.55;1.45;;;;;;;20.22;51.93;100984.16;5083536;28;20395;-73
2022/05/27 09:51:05;;;;;;;2.20;1.37;;;;;;;20.21;51.47;100991.59;5084529;28;20483;-73
2022/05/27 09:53:38;;;;;;;1.42;1.23;;;;;;;20.16;51.50;100989.72;5061648;28;20898;-73
2022/05/27 09:56:08;;;;;;;2.65;1.52;;;;;;;20.04;51.75;100992.09;5081237;28;20543;-73
2022/05/27 09:58:40;;;;;;;1.65;1.48;;;;;;;19.95;51.46;100995.78;5073990;28;20399;-73
2022/05/27 10:01:25;;;;;;;2.30;1.30;;;;;;;19.91;50.99;100986.50;5085338;28;20405;-73
2022/05/27 10:04:12;;;;;;;2.65;1.58;;;;;;;19.88;51.71;100996.16;5073699;28;20407;-73
2022/05/27 10:06:38;;;;;;;1.77;1.52;;;;;;;19.92;51.88;100997.19;5077425;28;20416;-73
2022/05/27 10:09:07;;;;;;;1.60;1.48;;;;;;;20.06;51.97;100995.34;5059336;28;20387;-73
2022/05/27 10:11:33;;;;;;;2.50;1.00;;;;;;;20.02;51.53;100997.06;5089123;28;20413;-73
2022/05/27 10:14:22;;;;;;;1.23;1.15;;;;;;;19.98;51.38;100970.44;5072534;28;20415;-73
2022/05/27 10:17:05;;;;;;;1.80;1.40;;;;;;;20.09;51.58;100975.50;5081186;28;20518;-73
2022/05/27 10:19:30;;;;;;;1.70;1.30;;;;;;;20.18;51.41;100986.69;5088667;28;20809;-73
2022/05/27 10:21:59;;;;;;;2.00;1.23;;;;;;;20.17;51.43;100972.09;5083761;28;20400;-73
2022/05/27 10:24:28;;;;;;;1.75;1.30;;;;;;;20.02;52.50;100985.25;5073561;28;20396;-73
2022/05/27 10:27:11;;;;;;;4.57;2.42;;;;;;;19.97;52.38;100979.81;5086291;28;20431;-73
2022/05/27 10:29:57;;;;;;;1.15;1.15;;;;;;;19.91;52.28;100968.06;5071736;28;20407;-73
2022/05/27 10:32:26;;;;;;;2.88;1.48;;;;;;;19.99;52.31;100961.09;5083142;28;20495;-73
2022/05/27 10:34:52;;;;;;;0.93;0.93;;;;;;;21.05;50.39;100960.28;5075535;28;20400;-73
2022/05/27 10:37:28;;;;;;;1.17;1.10;;;;;;;22.02;48.06;100956.53;5075129;28;20407;-74
2022/05/27 10:40:31;;;;;;;1.38;1.15;;;;;;;22.58;45.83;100961.59;5104130;28;20900;-74
2022/05/27 10:43:04;;;;;;;1.50;1.20;;;;;;;22.89;44.59;100967.22;5075059;28;20413;-74
2022/05/27 10:45:44;;;;;;;3.38;1.05;;;;;;;22.81;44.70;100963.28;5083254;28;20971;-73
2022/05/27 10:48:25;;;;;;;1.25;0.75;;;;;;;22.55;45.13;100956.69;5071513;28;20388;-73
2022/05/27 10:51:21;;;;;;;1.17;0.70;;;;;;;22.28;44.83;100960.34;5054324;28;20913;-73
2022/05/27 10:54:29;;;;;;;1.60;0.60;;;;;;;21.84;46.16;100960.19;5080083;28;20414;-73
2022/05/27 11:02:53;;;;;;;0.80;0.80;;;;;;;21.35;47.29;100955.38;5087915;28;20479;-74
2022/05/27 11:05:50;;;;;;;2.15;1.65;;;;;;;21.08;48.02;100951.41;5073849;28;20403;-76
2022/05/27 11:08:25;;;;;;;1.60;1.27;;;;;;;21.23;48.43;100946.78;5033702;28;20414;-75
2022/05/27 11:11:11;;;;;;;1.48;0.88;;;;;;;21.26;48.37;100943.41;5081151;28;20439;-73
2022/05/27 11:17:09;;;;;;;1.83;1.00;;;;;;;21.61;48.28;100943.53;5082698;28;20445;-73
2022/05/27 11:19:56;;;;;;;2.00;1.13;;;;;;;21.55;48.46;100936.50;5094750;28;20412;-73
2022/05/27 11:23:04;;;;;;;1.60;0.95;;;;;;;21.25;49.18;100948.09;5088113;28;20457;-74
2022/05/27 11:26:05;;;;;;;1.70;0.85;;;;;;;21.06;49.90;100930.78;5064606;28;20454;-73
2022/05/27 11:28:46;;;;;;;2.03;1.38;;;;;;;20.99;49.99;100950.47;5061480;28;20492;-74
2022/05/27 11:31:35;;;;;;;2.50;1.00;;;;;;;20.86;50.38;100940.22;5083283;28;20419;-73
2022/05/27 11:34:22;;;;;;;2.42;1.30;;;;;;;20.90;50.49;100930.25;5091680;28;20406;-73
2022/05/27 11:36:47;;;;;;;3.95;1.17;;;;;;;20.84;50.25;100933.41;5082574;28;20433;-74
2022/05/27 11:39:19;;;;;;;1.50;0.80;;;;;;;20.76;50.41;100934.91;5082066;28;20434;-73
2022/05/27 11:41:59;;;;;;;1.63;0.90;;;;;;;20.77;50.44;100935.72;5081629;28;20418;-74
2022/05/27 11:44:55;;;;;;;1.80;1.00;;;;;;;20.73;50.21;100940.19;5080748;28;20387;-73
2022/05/27 11:47:50;;;;;;;2.80;1.15;;;;;;;20.59;50.96;100938.19;5078262;28;20426;-73
2022/05/27 11:50:40;;;;;;;0.85;0.85;;;;;;;20.49;51.16;100937.53;5078861;28;20438;-74
2022/05/27 11:53:28;;;;;;;3.40;1.05;;;;;;;20.45;51.15;100931.81;5084451;28;20433;-74
2022/05/27 11:56:04;;;;;;;2.00;0.80;;;;;;;20.27;51.23;100932.66;5091291;28;20400;-74
2022/05/27 11:58:46;;;;;;;1.38;0.90;;;;;;;20.26;50.71;100944.72;5090434;28;20487;-74
2022/05/27 12:01:26;;;;;;;1.10;0.80;;;;;;;20.09;50.04;100941.66;5057317;28;20747;-73
2022/05/27 12:04:10;;;;;;;0.80;0.80;;;;;;;20.05;50.72;100935.13;5086236;28;20397;-73
2022/05/27 12:06:43;;;;;;;1.60;0.80;;;;;;;20.07;50.58;100930.16;5078874;28;20403;-74
2022/05/27 12:09:19;;;;;;;3.03;0.70;;;;;;;20.17;50.49;100939.09;5081552;28;20388;-74
2022/05/27 12:11:50;;;;;;;1.60;1.13;;;;;;;20.21;50.72;100931.06;5091511;28;20417;-73
2022/05/27 12:14:38;;;;;;;0.77;0.77;;;;;;;20.09;51.10;100938.91;5098028;28;20386;-73
2022/05/27 12:17:09;;;;;;;1.30;0.95;;;;;;;20.15;51.12;100937.75;5082528;28;20398;-74
2022/05/27 12:19:40;;;;;;;1.00;0.90;;;;;;;20.12;51.03;100939.13;5084013;28;20435;-74
2022/05/27 12:22:10;;;;;;;2.17;0.95;;;;;;;19.99;51.47;100928.06;5082899;28;20480;-74